createdAt,value
2023-02-13T00:01:06.696Z,103485.69
2023-02-13T00:03:36.201Z,103480.31
2023-02-13T00:06:04.403Z,103481.22
2023-02-13T00:08:32.444Z,103480.34
2023-02-13T00:11:00.541Z,103483.06
2023-02-13T00:13:28.690Z,103481.28
2023-02-13T00:15:57.930Z,103476.78
2023-02-13T00:18:27.059Z,103476.78
2023-02-13T00:21:01.232Z,103474.94
2023-02-13T00:23:31.424Z,103472.25
2023-02-13T00:25:59.731Z,103469.56
2023-02-13T00:28:28.464Z,103470.44
2023-02-13T00:31:03.259Z,103471.34
2023-02-13T00:33:31.350Z,103470.44
2023-02-13T00:36:06.439Z,103462.41
2023-02-13T00:38:34.555Z,103461.56
2023-02-13T00:41:02.728Z,103465.16
2023-02-13T00:43:30.998Z,103460.66
2023-02-13T00:45:59.674Z,103464.25
2023-02-13T00:48:27.814Z,103462.47
2023-02-13T00:50:56.364Z,103464.28
2023-02-13T00:53:27.005Z,103465.22
2023-02-13T00:55:55.277Z,103472.38
2023-02-13T00:58:23.550Z,103466.13
2023-02-13T01:00:52.699Z,103468.78
2023-02-13T01:03:21.698Z,103466.16
2023-02-13T01:05:50.261Z,103466.16
2023-02-13T01:08:19.426Z,103459.91
2023-02-13T01:10:49.715Z,103463.47
2023-02-13T01:13:19.477Z,103461.69
2023-02-13T01:15:48.630Z,103466.16
2023-02-13T01:18:17.640Z,103463.47
2023-02-13T01:20:46.137Z,103470.59
2023-02-13T01:23:14.202Z,103458.09
2023-02-13T01:25:42.511Z,103458.97
2023-02-13T01:28:11.978Z,103462.56
2023-02-13T01:30:40.185Z,103464.31
2023-02-13T01:33:08.276Z,103461.63
2023-02-13T01:35:36.337Z,103456.31
2023-02-13T01:38:04.416Z,103454.53
2023-02-13T01:40:32.856Z,103454.53
2023-02-13T01:43:00.911Z,103450.06
2023-02-13T01:45:32.206Z,103457.25
2023-02-13T01:48:05.806Z,103449.19
2023-02-13T01:50:37.119Z,103446.50
2023-02-13T01:53:08.093Z,103449.19
2023-02-13T01:55:36.945Z,103448.28
2023-02-13T01:58:09.307Z,103444.69
2023-02-13T02:00:39.244Z,103449.13
2023-02-13T02:03:12.247Z,103447.34
2023-02-13T02:05:40.615Z,103437.53
2023-02-13T02:08:11.664Z,103440.22
2023-02-13T02:10:40.651Z,103436.66
2023-02-13T02:13:12.362Z,103443.81
2023-02-13T02:15:43.546Z,103442.00
2023-02-13T02:18:16.508Z,103431.25
2023-02-13T02:21:32.717Z,103425.03
2023-02-13T02:24:41.078Z,103428.63
2023-02-13T02:27:50.610Z,103418.78
2023-02-13T02:30:45.112Z,103420.56
2023-02-13T02:33:30.883Z,103429.53
2023-02-13T02:36:08.546Z,103428.63
2023-02-13T02:38:48.777Z,103438.50
2023-02-13T02:41:34.603Z,103425.03
2023-02-13T02:44:10.299Z,103422.38
2023-02-13T02:47:01.807Z,103429.53
2023-02-13T02:49:52.436Z,103431.34
2023-02-13T02:52:21.414Z,103435.81
2023-02-13T02:55:10.306Z,103434.00
2023-02-13T02:58:00.377Z,103430.41
2023-02-13T03:00:59.803Z,103425.94
2023-02-13T03:03:42.810Z,103424.16
2023-02-13T03:06:16.821Z,103427.75
2023-02-13T03:09:09.584Z,103431.31
2023-02-13T03:11:55.687Z,103433.09
2023-02-13T03:14:26.112Z,103431.34
2023-02-13T03:17:13.653Z,103429.53
2023-02-13T03:20:08.935Z,103429.56
2023-02-13T03:22:43.607Z,103422.41
2023-02-13T03:25:18.902Z,103415.22
2023-02-13T03:28:09.612Z,103414.41
2023-02-13T03:30:48.956Z,103417.13
2023-02-13T03:33:30.809Z,103426.06
2023-02-13T03:36:24.203Z,103418.91
2023-02-13T03:38:56.758Z,103430.56
2023-02-13T03:41:27.885Z,103420.75
2023-02-13T03:44:09.365Z,103431.47
2023-02-13T03:46:40.450Z,103429.66
2023-02-13T03:49:29.806Z,103430.56
2023-02-13T03:52:01.040Z,103426.06
2023-02-13T03:54:51.540Z,103426.09
2023-02-13T03:57:39.284Z,103421.63
2023-02-13T04:00:11.058Z,103429.69
2023-02-13T04:02:47.635Z,103435.94
2023-02-13T04:05:18.319Z,103439.53
2023-02-13T04:07:46.436Z,103426.13
2023-02-13T04:10:17.217Z,103438.69
2023-02-13T04:12:52.154Z,103432.44
2023-02-13T04:15:23.334Z,103438.69
2023-02-13T04:17:54.218Z,103435.97
2023-02-13T04:20:22.432Z,103434.19
2023-02-13T04:22:50.480Z,103431.50
2023-02-13T04:25:20.979Z,103435.09
2023-02-13T04:27:49.072Z,103426.13
2023-02-13T04:30:19.999Z,103432.41
2023-02-13T04:32:48.211Z,103430.59
2023-02-13T04:35:16.640Z,103421.66
2023-02-13T04:37:44.724Z,103433.34
2023-02-13T04:40:13.289Z,103423.47
2023-02-13T04:42:42.741Z,103420.81
2023-02-13T04:45:11.357Z,103419.94
2023-02-13T04:47:39.408Z,103425.34
2023-02-13T04:50:08.326Z,103422.69
2023-02-13T04:52:36.412Z,103428.03
2023-02-13T04:55:04.656Z,103418.19
2023-02-13T04:57:32.773Z,103428.00
2023-02-13T05:00:02.247Z,103426.19
2023-02-13T05:02:30.300Z,103423.50
2023-02-13T05:04:58.390Z,103419.03
2023-02-13T05:07:26.475Z,103421.72
2023-02-13T05:09:54.572Z,103427.97
2023-02-13T05:12:22.685Z,103430.66
2023-02-13T05:14:50.968Z,103429.78
2023-02-13T05:17:20.449Z,103433.38
2023-02-13T05:19:48.526Z,103427.09
2023-02-13T05:22:34.039Z,103430.69
2023-02-13T05:25:02.126Z,103431.56
2023-02-13T05:27:30.213Z,103431.56
2023-02-13T05:29:57.316Z,103432.50
2023-02-13T05:32:26.893Z,103432.53
2023-02-13T05:34:54.956Z,103436.09
2023-02-13T05:37:23.036Z,103432.50
2023-02-13T05:39:51.119Z,103432.53
2023-02-13T05:42:19.199Z,103431.63
2023-02-13T05:44:47.297Z,103433.41
2023-02-13T05:47:15.577Z,103442.34
2023-02-13T05:49:45.036Z,103438.78
2023-02-13T05:52:13.075Z,103441.47
2023-02-13T05:54:41.166Z,103431.66
2023-02-13T05:57:09.229Z,103437.00
2023-02-13T05:59:37.337Z,103440.59
2023-02-13T06:02:05.484Z,103438.81
2023-02-13T06:04:33.578Z,103442.41
2023-02-13T06:07:03.042Z,103447.78
2023-02-13T06:09:31.097Z,103456.75
2023-02-13T06:11:59.193Z,103452.28
2023-02-13T06:14:27.326Z,103460.31
2023-02-13T06:16:55.387Z,103460.31
2023-02-13T06:19:23.500Z,103458.53
2023-02-13T06:21:51.636Z,103457.63
2023-02-13T06:24:21.063Z,103460.31
2023-02-13T06:26:49.186Z,103461.22
2023-02-13T06:29:17.245Z,103456.72
2023-02-13T06:31:45.352Z,103460.31
2023-02-13T06:34:13.492Z,103455.81
2023-02-13T06:36:42.661Z,103470.16
2023-02-13T06:39:10.885Z,103463.91
2023-02-13T06:41:40.307Z,103471.94
2023-02-13T06:44:08.916Z,103466.56
2023-02-13T06:46:37.058Z,103464.81
2023-02-13T06:49:05.206Z,103471.03
2023-02-13T06:51:33.242Z,103475.53
2023-02-13T06:54:03.692Z,103480.00
2023-02-13T06:56:32.841Z,103476.44
2023-02-13T06:59:02.285Z,103478.25
2023-02-13T07:01:30.487Z,103485.41
2023-02-13T07:03:58.560Z,103487.22
2023-02-13T07:06:26.800Z,103486.28
2023-02-13T07:08:55.947Z,103490.75
2023-02-13T07:11:25.985Z,103487.16
2023-02-13T07:13:54.048Z,103488.03
2023-02-13T07:16:23.726Z,103483.59
2023-02-13T07:18:51.864Z,103485.34
2023-02-13T07:21:19.961Z,103480.91
2023-02-13T07:23:48.029Z,103489.81
2023-02-13T07:26:16.243Z,103490.69
2023-02-13T07:28:44.376Z,103494.25
2023-02-13T07:31:12.740Z,103503.19
2023-02-13T07:33:42.230Z,103503.16
2023-02-13T07:36:10.523Z,103504.06
2023-02-13T07:38:38.589Z,103504.97
2023-02-13T07:41:06.750Z,103506.75
2023-02-13T07:43:34.865Z,103506.75
2023-02-13T07:46:04.452Z,103500.50
2023-02-13T07:48:32.523Z,103507.66
2023-02-13T07:51:03.818Z,103510.34
2023-02-13T07:53:31.987Z,103513.91
2023-02-13T07:56:00.110Z,103514.81
2023-02-13T07:58:28.207Z,103509.41
2023-02-13T08:00:56.382Z,103516.56
2023-02-13T08:03:24.583Z,103518.31
2023-02-13T08:05:52.763Z,103518.28
2023-02-13T08:08:22.227Z,103530.81
2023-02-13T08:11:07.470Z,103513.75
2023-02-13T08:13:37.378Z,103520.94
2023-02-13T08:16:05.947Z,103520.94
2023-02-13T08:18:34.157Z,103513.75
2023-02-13T08:21:03.100Z,103519.09
2023-02-13T08:23:32.664Z,103511.91
2023-02-13T08:26:02.133Z,103510.13
2023-02-13T08:28:30.304Z,103517.22
2023-02-13T08:30:58.459Z,103510.94
2023-02-13T08:33:26.953Z,103508.22
2023-02-13T08:35:55.290Z,103520.72
2023-02-13T08:38:24.341Z,103515.28
2023-02-13T08:40:53.789Z,103514.38
2023-02-13T08:43:21.830Z,103517.03
2023-02-13T08:45:49.967Z,103525.09
2023-02-13T08:48:18.255Z,103522.41
2023-02-13T08:50:46.337Z,103525.06
2023-02-13T08:53:14.446Z,103523.28
2023-02-13T08:55:42.587Z,103525.03
2023-02-13T08:58:12.040Z,103517.88
2023-02-13T09:00:40.126Z,103522.34
2023-02-13T09:03:10.077Z,103518.72
2023-02-13T09:05:38.500Z,103519.63
2023-02-13T09:08:08.164Z,103522.34
2023-02-13T09:10:36.232Z,103522.31
2023-02-13T09:13:04.514Z,103524.03
2023-02-13T09:15:34.381Z,103523.97
2023-02-13T09:18:02.537Z,103522.13
2023-02-13T09:20:30.634Z,103529.22
2023-02-13T09:22:58.745Z,103521.13
2023-02-13T09:25:27.171Z,103522.06
2023-02-13T09:27:55.326Z,103530.13
2023-02-13T09:30:24.369Z,103526.50
2023-02-13T09:32:54.888Z,103522.94
2023-02-13T09:35:23.894Z,103521.16
2023-02-13T09:37:52.068Z,103513.94
2023-02-13T09:40:24.386Z,103519.25
2023-02-13T09:42:53.972Z,103523.69
2023-02-13T09:45:22.969Z,103522.72
2023-02-13T09:47:51.454Z,103522.63
2023-02-13T09:50:25.200Z,103520.75
2023-02-13T09:52:54.956Z,103528.75
2023-02-13T09:55:25.406Z,103517.06
2023-02-13T09:57:59.058Z,103519.72
2023-02-13T10:00:34.410Z,103519.69
2023-02-13T10:03:28.112Z,103522.38
2023-02-13T10:06:07.590Z,103521.47
2023-02-13T10:09:00.179Z,103511.59
2023-02-13T10:12:02.375Z,103509.78
2023-02-13T10:14:33.719Z,103516.94
2023-02-13T10:17:05.181Z,103521.41
2023-02-13T10:19:37.195Z,103528.59
2023-02-13T10:22:14.371Z,103530.41
2023-02-13T10:24:46.104Z,103525.88
2023-02-13T10:27:21.739Z,103529.41
2023-02-13T10:30:12.594Z,103517.75
2023-02-13T10:32:49.135Z,103529.38
2023-02-13T10:35:25.575Z,103523.09
2023-02-13T10:37:57.878Z,103523.97
2023-02-13T10:40:32.316Z,103523.94
2023-02-13T10:43:07.439Z,103517.53
2023-02-13T10:46:02.046Z,103513.88
2023-02-13T10:48:48.483Z,103512.94
2023-02-13T10:51:25.307Z,103506.56
2023-02-13T10:54:07.420Z,103497.59
2023-02-13T10:56:39.723Z,103501.19
2023-02-13T10:59:28.325Z,103501.13
2023-02-13T11:01:58.764Z,103485.00
2023-02-13T11:04:26.946Z,103500.22
2023-02-13T11:06:58.701Z,103493.00
2023-02-13T11:09:29.713Z,103491.19
2023-02-13T11:11:57.796Z,103485.91
2023-02-13T11:14:27.136Z,103487.72
2023-02-13T11:16:58.614Z,103491.28
2023-02-13T11:19:31.256Z,103489.50
2023-02-13T11:22:02.834Z,103484.94
2023-02-13T11:24:32.674Z,103487.59
2023-02-13T11:27:05.857Z,103491.97
2023-02-13T11:29:34.910Z,103492.84
2023-02-13T11:32:19.292Z,103495.41
2023-02-13T11:34:48.115Z,103484.59
2023-02-13T11:37:22.659Z,103481.84
2023-02-13T11:39:53.709Z,103481.78
2023-02-13T11:42:29.504Z,103483.63
2023-02-13T11:45:01.528Z,103483.66
2023-02-13T11:47:38.887Z,103480.03
2023-02-13T11:50:20.385Z,103480.84
2023-02-13T11:52:56.304Z,103478.06
2023-02-13T11:55:34.315Z,103477.97
2023-02-13T11:58:04.847Z,103479.75
2023-02-13T12:00:37.726Z,103488.84
2023-02-13T12:03:26.968Z,103482.63
2023-02-13T12:06:02.637Z,103479.91
2023-02-13T12:08:31.281Z,103477.34
2023-02-13T12:11:01.730Z,103475.56
2023-02-13T12:13:33.775Z,103479.19
2023-02-13T12:16:05.215Z,103479.22
2023-02-13T12:18:36.603Z,103475.72
2023-02-13T12:21:11.228Z,103472.13
2023-02-13T12:23:45.692Z,103463.97
2023-02-13T12:26:29.064Z,103467.41
2023-02-13T12:29:09.958Z,103471.13
2023-02-13T12:31:46.870Z,103470.41
2023-02-13T12:34:49.713Z,103464.13
2023-02-13T12:37:25.832Z,103461.38
2023-02-13T12:40:09.652Z,103464.88
2023-02-13T12:42:45.121Z,103464.81
2023-02-13T12:45:22.189Z,103456.75
2023-02-13T12:48:04.428Z,103462.19
2023-02-13T12:50:49.055Z,103463.28
2023-02-13T12:53:33.100Z,103469.78
2023-02-13T12:56:17.195Z,103467.25
2023-02-13T12:59:01.495Z,103460.91
2023-02-13T13:01:55.341Z,103458.16
2023-02-13T13:04:33.191Z,103456.38
2023-02-13T13:07:24.625Z,103455.59
2023-02-13T13:10:04.006Z,103456.47
2023-02-13T13:12:41.461Z,103460.88
2023-02-13T13:15:19.043Z,103462.59
2023-02-13T13:17:58.756Z,103466.06
2023-02-13T13:20:51.554Z,103472.22
2023-02-13T13:23:21.815Z,103469.50
2023-02-13T13:25:59.956Z,103467.78
2023-02-13T13:28:32.206Z,103468.66
2023-02-13T13:31:02.780Z,103470.44
2023-02-13T13:33:32.012Z,103470.44
2023-02-13T13:36:05.597Z,103466.91
2023-02-13T13:38:44.633Z,103465.19
2023-02-13T13:41:17.082Z,103467.91
2023-02-13T13:43:59.146Z,103468.78
2023-02-13T13:46:37.054Z,103470.56
2023-02-13T13:49:15.289Z,103462.56
2023-02-13T13:51:43.432Z,103461.84
2023-02-13T13:54:34.447Z,103469.06
2023-02-13T13:57:12.877Z,103464.69
2023-02-13T14:00:01.140Z,103474.81
2023-02-13T14:02:42.642Z,103465.16
2023-02-13T14:05:26.652Z,103468.03
2023-02-13T14:07:56.390Z,103463.69
2023-02-13T14:11:09.022Z,103468.13
2023-02-13T14:13:39.496Z,103463.50
2023-02-13T14:16:11.670Z,103457.19
2023-02-13T14:18:46.616Z,103449.94
2023-02-13T14:21:23.625Z,103446.34
2023-02-13T14:23:53.640Z,103453.47
2023-02-13T14:26:40.345Z,103452.63
2023-02-13T14:29:31.184Z,103455.44
2023-02-13T14:32:18.892Z,103451.00
2023-02-13T14:34:55.425Z,103442.91
2023-02-13T14:37:31.037Z,103451.81
2023-02-13T14:40:30.569Z,103443.59
2023-02-13T14:43:01.215Z,103442.66
2023-02-13T14:45:33.351Z,103441.75
2023-02-13T14:48:07.748Z,103444.41
2023-02-13T14:50:46.683Z,103440.78
2023-02-13T14:53:23.040Z,103430.97
2023-02-13T14:55:56.972Z,103433.63
2023-02-13T14:58:28.108Z,103438.06
2023-02-13T15:01:00.273Z,103438.00
2023-02-13T15:03:31.896Z,103430.03
2023-02-13T15:06:05.028Z,103436.41
2023-02-13T15:08:37.324Z,103433.94
2023-02-13T15:11:25.501Z,103435.88
2023-02-13T15:13:53.590Z,103435.91
2023-02-13T15:16:21.697Z,103422.38
2023-02-13T15:18:52.619Z,103419.66
2023-02-13T15:21:26.210Z,103416.94
2023-02-13T15:23:56.966Z,103423.22
2023-02-13T15:26:28.943Z,103415.22
2023-02-13T15:29:01.054Z,103419.88
2023-02-13T15:31:33.331Z,103414.59
2023-02-13T15:34:01.597Z,103423.59
2023-02-13T15:36:38.006Z,103421.88
2023-02-13T15:39:10.401Z,103419.22
2023-02-13T15:41:41.179Z,103418.41
2023-02-13T15:44:09.291Z,103409.53
2023-02-13T15:46:39.506Z,103415.84
2023-02-13T15:49:10.526Z,103410.59
2023-02-13T15:51:40.630Z,103423.19
2023-02-13T15:54:22.734Z,103409.75
2023-02-13T15:56:52.014Z,103414.19
2023-02-13T15:59:21.006Z,103404.31
2023-02-13T16:01:50.940Z,103412.28
2023-02-13T16:04:21.551Z,103406.84
2023-02-13T16:06:51.838Z,103408.63
2023-02-13T16:09:28.452Z,103411.28
2023-02-13T16:12:02.313Z,103405.88
2023-02-13T16:14:31.791Z,103409.44
2023-02-13T16:17:01.748Z,103406.75
2023-02-13T16:19:45.289Z,103410.28
2023-02-13T16:22:25.719Z,103403.13
2023-02-13T16:24:55.833Z,103401.44
2023-02-13T16:27:27.723Z,103405.09
2023-02-13T16:29:58.163Z,103403.44
2023-02-13T16:32:30.292Z,103402.53
2023-02-13T16:35:16.180Z,103401.66
2023-02-13T16:37:53.216Z,103403.41
2023-02-13T16:40:34.393Z,103407.88
2023-02-13T16:43:42.119Z,103409.69
2023-02-13T16:46:33.551Z,103421.38
2023-02-13T16:49:07.828Z,103414.28
2023-02-13T16:51:39.673Z,103400.00
2023-02-13T16:54:21.452Z,103413.44
2023-02-13T16:56:52.483Z,103413.41
2023-02-13T16:59:27.198Z,103416.09
2023-02-13T17:02:19.792Z,103418.78
2023-02-13T17:04:51.415Z,103415.13
2023-02-13T17:07:22.524Z,103408.84
2023-02-13T17:09:57.379Z,103406.16
2023-02-13T17:12:25.809Z,103420.53
2023-02-13T17:14:54.029Z,103420.50
2023-02-13T17:17:23.834Z,103420.56
2023-02-13T17:19:52.903Z,103411.63
2023-02-13T17:22:34.850Z,103418.81
2023-02-13T17:25:07.694Z,103421.50
2023-02-13T17:27:35.924Z,103420.59
2023-02-13T17:30:04.647Z,103415.19
2023-02-13T17:32:32.773Z,103416.97
2023-02-13T17:35:00.859Z,103419.66
2023-02-13T17:37:30.128Z,103427.69
2023-02-13T17:39:58.200Z,103427.75
2023-02-13T17:42:30.022Z,103434.91
2023-02-13T17:44:59.441Z,103423.31
2023-02-13T17:47:27.691Z,103432.28
2023-02-13T17:50:08.333Z,103426.03
2023-02-13T17:52:37.840Z,103425.19
2023-02-13T17:55:06.738Z,103421.66
2023-02-13T17:57:36.302Z,103423.44
2023-02-13T18:00:05.346Z,103431.47
2023-02-13T18:02:34.280Z,103443.09
2023-02-13T18:05:02.710Z,103441.28
2023-02-13T18:07:30.789Z,103433.28
2023-02-13T18:09:58.916Z,103427.94
2023-02-13T18:12:27.089Z,103431.56
2023-02-13T18:14:56.570Z,103444.09
2023-02-13T18:17:24.720Z,103433.34
2023-02-13T18:19:52.824Z,103425.28
2023-02-13T18:22:20.938Z,103421.69
2023-02-13T18:24:49.139Z,103419.00
2023-02-13T18:27:17.585Z,103419.03
2023-02-13T18:29:45.685Z,103420.84
2023-02-13T18:32:15.219Z,103418.16
2023-02-13T18:34:43.342Z,103417.25
2023-02-13T18:37:11.429Z,103415.47
2023-02-13T18:39:39.679Z,103421.78
2023-02-13T18:42:07.818Z,103420.00
2023-02-13T18:44:35.978Z,103422.72
2023-02-13T18:47:04.088Z,103418.28
2023-02-13T18:49:33.558Z,103427.25
2023-02-13T18:52:02.341Z,103429.00
2023-02-13T18:54:30.739Z,103430.78
2023-02-13T18:56:58.875Z,103426.28
2023-02-13T18:59:26.989Z,103433.41
2023-02-13T19:01:55.085Z,103439.63
2023-02-13T19:04:23.151Z,103439.63
2023-02-13T19:06:52.624Z,103436.91
2023-02-13T19:09:20.727Z,103433.31
2023-02-13T19:11:48.985Z,103432.44
2023-02-13T19:14:17.213Z,103435.13
2023-02-13T19:16:45.332Z,103437.81
2023-02-13T19:19:13.412Z,103441.41
2023-02-13T19:21:41.834Z,103438.72
2023-02-13T19:24:15.383Z,103436.97
2023-02-13T19:26:44.681Z,103434.31
2023-02-13T19:29:12.766Z,103433.44
2023-02-13T19:31:41.434Z,103434.38
2023-02-13T19:34:09.651Z,103431.66
2023-02-13T19:36:37.744Z,103431.69
2023-02-13T19:39:08.915Z,103437.06
2023-02-13T19:41:40.557Z,103439.75
2023-02-13T19:44:09.363Z,103443.38
2023-02-13T19:46:38.422Z,103438.94
2023-02-13T19:49:07.045Z,103445.19
2023-02-13T19:51:35.756Z,103442.47
2023-02-13T19:54:06.092Z,103432.63
2023-02-13T19:56:35.416Z,103437.06
2023-02-13T19:59:05.007Z,103442.41
2023-02-13T20:01:33.161Z,103430.78
2023-02-13T20:04:01.266Z,103439.75
2023-02-13T20:06:34.969Z,103437.97
2023-02-13T20:09:06.333Z,103433.50
2023-02-13T20:11:34.724Z,103429.94
2023-02-13T20:14:05.414Z,103428.16
2023-02-13T20:16:36.479Z,103439.75
2023-02-13T20:19:08.973Z,103442.41
2023-02-13T20:21:37.676Z,103438.84
2023-02-13T20:24:06.530Z,103440.63
2023-02-13T20:26:34.907Z,103449.59
2023-02-13T20:29:04.504Z,103447.78
2023-02-13T20:31:33.625Z,103446.00
2023-02-13T20:34:02.225Z,103448.69
2023-02-13T20:36:32.379Z,103454.94
2023-02-13T20:39:03.028Z,103451.38
2023-02-13T20:41:33.398Z,103447.84
2023-02-13T20:44:02.664Z,103454.13
2023-02-13T20:46:33.003Z,103451.50
2023-02-13T20:49:01.156Z,103456.88
2023-02-13T20:51:29.545Z,103458.66
2023-02-13T20:53:59.003Z,103458.63
2023-02-13T20:56:28.232Z,103453.22
2023-02-13T20:58:57.574Z,103458.53
2023-02-13T21:01:27.536Z,103456.75
2023-02-13T21:03:57.652Z,103461.22
2023-02-13T21:06:27.144Z,103461.22
2023-02-13T21:08:55.623Z,103469.28
2023-02-13T21:11:24.517Z,103477.41
2023-02-13T21:13:52.895Z,103468.47
2023-02-13T21:16:22.884Z,103475.66
2023-02-13T21:18:52.882Z,103481.94
2023-02-13T21:21:23.896Z,103478.34
2023-02-13T21:23:53.692Z,103481.03
2023-02-13T21:26:21.924Z,103485.50
2023-02-13T21:28:50.742Z,103476.50
2023-02-13T21:31:25.400Z,103488.13
2023-02-13T21:33:53.792Z,103484.50
2023-02-13T21:36:23.223Z,103481.84
2023-02-13T21:38:51.348Z,103487.19
2023-02-13T21:41:19.991Z,103496.13
2023-02-13T21:43:49.886Z,103489.03
2023-02-13T21:46:19.915Z,103490.84
2023-02-13T21:48:48.722Z,103491.75
2023-02-13T21:51:18.639Z,103494.41
2023-02-13T21:53:49.231Z,103488.13
2023-02-13T21:56:19.367Z,103488.19
2023-02-13T21:58:48.175Z,103495.38
2023-02-13T22:01:25.967Z,103498.06
2023-02-13T22:03:58.495Z,103496.28
2023-02-13T22:06:28.979Z,103497.16
2023-02-13T22:08:59.328Z,103500.72
2023-02-13T22:11:28.006Z,103494.41
2023-02-13T22:13:57.148Z,103499.78
2023-02-13T22:16:25.638Z,103496.19
2023-02-13T22:18:53.806Z,103481.00
2023-02-13T22:21:23.607Z,103488.16
2023-02-13T22:23:52.671Z,103492.63
2023-02-13T22:26:24.055Z,103490.84
2023-02-13T22:28:53.088Z,103483.75
2023-02-13T22:31:24.902Z,103490.91
2023-02-13T22:34:09.103Z,103488.28
2023-02-13T22:36:39.558Z,103493.66
2023-02-13T22:39:08.674Z,103490.94
2023-02-13T22:41:38.579Z,103490.97
2023-02-13T22:44:06.735Z,103493.63
2023-02-13T22:46:35.600Z,103489.16
2023-02-13T22:49:04.180Z,103489.13
2023-02-13T22:51:34.957Z,103488.22
2023-02-13T22:54:03.198Z,103486.44
2023-02-13T22:56:32.163Z,103482.88
2023-02-13T22:59:01.640Z,103482.88
2023-02-13T23:01:30.405Z,103495.44
2023-02-13T23:03:58.770Z,103493.63
2023-02-13T23:06:27.055Z,103496.31
2023-02-13T23:08:55.518Z,103488.25
2023-02-13T23:11:42.827Z,103487.34
2023-02-13T23:14:13.602Z,103495.41
2023-02-13T23:17:00.247Z,103486.44
2023-02-13T23:19:29.769Z,103484.69
2023-02-13T23:21:58.032Z,103491.84
2023-02-13T23:24:26.437Z,103487.44
2023-02-13T23:26:54.496Z,103484.75
2023-02-13T23:29:24.165Z,103486.53
2023-02-13T23:31:52.305Z,103492.78
2023-02-13T23:34:20.638Z,103481.16
2023-02-13T23:36:49.018Z,103484.75
2023-02-13T23:39:17.118Z,103480.28
2023-02-13T23:41:45.289Z,103484.72
2023-02-13T23:44:13.447Z,103483.88
2023-02-13T23:46:42.919Z,103485.63
2023-02-13T23:49:11.115Z,103488.28
2023-02-13T23:51:39.168Z,103490.94
2023-02-13T23:54:07.355Z,103496.28
2023-02-13T23:56:35.467Z,103480.22
2023-02-13T23:59:03.586Z,103487.38
